Main page
METAR-TAF:

METAR-TAF

Airports :

Paya Lebar Air Base

Singapore, Singapore

latitude: 01-22N, longitude: 103-55E, elevation: 18 m

Current weather observation

The report was made 30 minutes ago, at 02:00 UTC
Wind 3 kt from the North
Temperature 25°C
Humidity 100%
Pressure 1011 hPa
Visibility: 8000 m
Few clouds at a height of 1000 ft
Broken clouds at a height of 16000 ft
light rain

METAR: WSAP 150200Z 01003KT 8000 -RA FEW010 BKN160 25/25 Q1011 RERA

Time: 10:30 (02:30 UTC)

Forecast

The report was made 3 hours and 30 minutes ago, at 23:00 UTC
Forecast valid from 15 at 00 UTC to 16 at 06 UTC
Wind 7 kt from the North/Northeast
Visibility 10 km or more
Few clouds at a height of 1500 ft
Scattered clouds at a height of 2000 ft
Temporary
from 15 at 00 UTC to 15 at 01 UTC
Visibility: 3000 m
Few clouds at a height of 1200 ft, Cumulonimbus.
Broken clouds at a height of 1500 ft
thunderstorm, rain

TAF: WSAP 142300Z 1500/1606 03007KT 9999 FEW015 SCT020 TEMPO 1500/1501 3000 TSRA FEW012CB BKN015

Weather observations and forecasts of more than 4000 airports (METAR and TAF reports).

The available stations are represented by yellow and red dots on the map.

Hover mouse over dot to see the name of the station.

Then click to see weather observations and forecasts.

To change the map : click on the green buttons with a black cross to zoom in, on the green button with a dash to zoom out, or on the green arrows for adjacent maps.


METAR-TAF: